Terminal Aerodrome Forecast
Issued by NWS

Home | Current Version | Previous Version | Text Only | Print | Product List | Glossary On
Versions: 1 2 3 4 5 6 7 8 9 10 11 12 13
434
FTUS45 KGGW 121724
TAFSDY
TAF
KSDY 121724Z 1218/1318 11009KT P6SM VCSH OVC040
     FM130300 12010KT P6SM VCSH OVC025
     FM130600 13012KT 6SM -SN OVC015
     FM130900 14010KT P6SM -SN OVC035
     FM131200 15011KT P6SM VCSH OVC050
      AMD LTD TO CLD VIS AND WIND=

USA.gov is the U.S. government's official web portal to all federal, state and local government web resources and services.